createdAt,value
2023-03-07T00:03:25.431Z,17.60
2023-03-07T00:09:27.171Z,20.53
2023-03-07T00:15:28.631Z,20.13
2023-03-07T00:21:32.124Z,19.63
2023-03-07T00:27:34.140Z,19.90
2023-03-07T00:33:35.882Z,21.67
2023-03-07T00:39:37.347Z,22.67
2023-03-07T00:45:39.131Z,19.85
2023-03-07T00:51:40.758Z,21.67
2023-03-07T00:57:42.662Z,18.85
2023-03-07T01:03:49.533Z,19.73
2023-03-07T01:09:51.526Z,19.67
2023-03-07T01:15:53.319Z,20.00
2023-03-07T01:21:55.356Z,22.30
2023-03-07T01:27:57.172Z,16.60
2023-03-07T01:34:03.594Z,18.53
2023-03-07T01:40:07.892Z,17.73
2023-03-07T01:46:18.761Z,22.58
2023-03-07T01:52:30.412Z,20.43
2023-03-07T01:58:35.872Z,18.95
2023-03-07T02:04:41.444Z,21.25
2023-03-07T02:10:43.302Z,20.30
2023-03-07T02:16:45.283Z,17.17
2023-03-07T02:22:48.676Z,20.23
2023-03-07T02:28:50.856Z,20.15
2023-03-07T02:34:52.797Z,23.02
2023-03-07T02:40:57.102Z,22.13
2023-03-07T02:46:58.694Z,22.80
2023-03-07T02:53:02.525Z,20.53
2023-03-07T02:59:04.315Z,20.88
2023-03-07T03:05:06.458Z,21.40
2023-03-07T03:11:07.988Z,19.50
2023-03-07T03:17:10.414Z,20.70
2023-03-07T03:23:11.916Z,19.07
2023-03-07T03:29:13.617Z,21.73
2023-03-07T03:35:15.436Z,21.63
2023-03-07T03:41:17.490Z,22.03
2023-03-07T03:47:20.952Z,19.30
2023-03-07T03:53:22.477Z,19.00
2023-03-07T03:59:24.059Z,18.38
2023-03-07T04:05:25.787Z,18.98
2023-03-07T04:11:29.110Z,18.07
2023-03-07T04:17:30.852Z,18.65
2023-03-07T04:23:32.911Z,17.17
2023-03-07T04:29:34.521Z,18.90
2023-03-07T04:35:40.741Z,16.83
2023-03-07T04:41:42.297Z,18.83
2023-03-07T04:47:52.041Z,18.17
2023-03-07T04:53:53.900Z,17.10
2023-03-07T04:59:55.515Z,16.55
2023-03-07T05:06:01.252Z,16.85
2023-03-07T05:12:02.952Z,13.77
2023-03-07T05:18:04.843Z,17.48
2023-03-07T05:24:06.827Z,15.10
2023-03-07T05:30:09.170Z,14.40
2023-03-07T05:36:10.817Z,14.95
2023-03-07T05:42:13.319Z,14.57
2023-03-07T05:48:14.947Z,13.30
2023-03-07T05:54:16.742Z,12.33
2023-03-07T06:00:19.142Z,11.95
2023-03-07T06:06:27.965Z,10.32
2023-03-07T06:12:29.568Z,12.50
2023-03-07T06:18:31.165Z,10.20
2023-03-07T06:24:32.735Z,11.40
2023-03-07T06:30:34.393Z,11.57
2023-03-07T06:36:36.253Z,10.65
2023-03-07T06:42:39.146Z,8.87
2023-03-07T06:48:42.121Z,9.90
2023-03-07T06:54:48.169Z,8.57
2023-03-07T07:00:49.672Z,11.15
2023-03-07T07:06:51.311Z,9.02
2023-03-07T07:12:56.557Z,10.20
2023-03-07T07:18:58.546Z,8.45
2023-03-07T07:25:00.128Z,7.57
2023-03-07T07:31:01.805Z,9.40
2023-03-07T07:37:05.258Z,8.40
2023-03-07T07:43:06.916Z,9.80
2023-03-07T07:49:18.581Z,7.97
2023-03-07T07:55:20.453Z,8.37
2023-03-07T08:01:23.897Z,8.30
2023-03-07T08:07:25.452Z,7.07
2023-03-07T08:13:27.007Z,8.70
2023-03-07T08:19:28.414Z,7.60
2023-03-07T08:25:30.048Z,7.20
2023-03-07T08:31:31.518Z,8.45
2023-03-07T08:37:33.021Z,6.80
2023-03-07T08:43:36.338Z,7.60
2023-03-07T08:49:38.074Z,7.20
2023-03-07T08:55:39.752Z,7.27
2023-03-07T09:01:41.377Z,7.13
2023-03-07T09:07:43.083Z,8.27
2023-03-07T09:13:51.964Z,7.57
2023-03-07T09:19:54.500Z,8.40
2023-03-07T09:25:58.999Z,8.17
2023-03-07T09:32:02.609Z,9.18
2023-03-07T09:38:04.279Z,8.57
2023-03-07T09:44:14.997Z,9.40
2023-03-07T09:50:46.425Z,7.82
2023-03-07T09:56:55.542Z,10.60
2023-03-07T10:03:21.383Z,7.32
2023-03-07T10:09:23.551Z,8.57
2023-03-07T10:15:34.001Z,9.77
2023-03-07T10:21:39.829Z,8.75
2023-03-07T10:27:41.658Z,8.57
2023-03-07T10:33:45.104Z,8.45
2023-03-07T10:39:50.297Z,8.77
2023-03-07T10:46:24.768Z,10.73
2023-03-07T10:52:40.508Z,10.48
2023-03-07T10:58:59.311Z,11.00
2023-03-07T11:05:00.882Z,9.65
2023-03-07T11:11:04.378Z,10.30
2023-03-07T11:17:16.926Z,8.63
2023-03-07T11:23:23.277Z,11.07
2023-03-07T11:29:33.794Z,8.30
2023-03-07T11:35:41.669Z,9.18
2023-03-07T11:41:47.161Z,9.85
2023-03-07T11:47:56.239Z,8.77
2023-03-07T11:54:02.259Z,10.05
2023-03-07T12:00:14.508Z,8.77
2023-03-07T12:06:34.609Z,8.95
2023-03-07T12:12:54.602Z,9.00
2023-03-07T12:19:16.492Z,9.43
2023-03-07T12:25:21.925Z,8.90
2023-03-07T12:31:26.742Z,8.87
2023-03-07T12:37:33.162Z,7.90
2023-03-07T12:43:40.397Z,8.25
2023-03-07T12:49:50.002Z,8.93
2023-03-07T12:55:56.226Z,9.07
2023-03-07T13:01:59.508Z,10.23
2023-03-07T13:08:01.598Z,6.60
2023-03-07T13:14:04.034Z,8.43
2023-03-07T13:20:24.057Z,8.13
2023-03-07T13:26:25.571Z,8.88
2023-03-07T13:32:45.840Z,8.57
2023-03-07T13:38:47.259Z,7.53
2023-03-07T13:44:48.733Z,7.60
2023-03-07T13:50:50.107Z,8.70
2023-03-07T13:56:51.803Z,8.95
2023-03-07T14:02:53.989Z,8.13
2023-03-07T14:08:55.535Z,8.27
2023-03-07T14:15:08.619Z,9.90
2023-03-07T14:21:20.045Z,8.33
2023-03-07T14:27:21.498Z,9.57
2023-03-07T14:33:29.005Z,6.43
2023-03-07T14:39:39.201Z,3.80
2023-03-07T14:45:46.897Z,5.15
2023-03-07T14:51:48.436Z,4.17
2023-03-07T14:57:52.978Z,8.15
2023-03-07T15:03:54.605Z,3.83
2023-03-07T15:09:56.066Z,3.88
2023-03-07T15:15:59.965Z,4.72
2023-03-07T15:22:03.740Z,4.03
2023-03-07T15:28:06.438Z,4.63
2023-03-07T15:34:12.290Z,4.13
2023-03-07T15:40:13.839Z,4.85
2023-03-07T15:46:16.837Z,5.35
2023-03-07T15:52:20.908Z,5.90
2023-03-07T15:58:22.879Z,3.13
2023-03-07T16:04:35.955Z,3.87
2023-03-07T16:10:46.080Z,4.32
2023-03-07T16:16:47.951Z,4.38
2023-03-07T16:22:49.493Z,5.67
2023-03-07T16:28:51.626Z,5.38
2023-03-07T16:34:53.092Z,5.60
2023-03-07T16:40:54.572Z,5.25
2023-03-07T16:46:58.399Z,5.60
2023-03-07T16:53:00.044Z,4.97
2023-03-07T16:59:01.547Z,5.68
2023-03-07T17:05:03.258Z,5.10
2023-03-07T17:11:05.139Z,5.32
2023-03-07T17:17:06.967Z,4.47
2023-03-07T17:23:08.408Z,4.20
2023-03-07T17:29:13.861Z,9.43
2023-03-07T17:35:15.622Z,5.80
2023-03-07T17:41:17.573Z,7.07
2023-03-07T17:47:19.003Z,6.50
2023-03-07T17:53:20.484Z,10.97
2023-03-07T17:59:21.942Z,7.00
2023-03-07T18:05:25.888Z,6.43
2023-03-07T18:11:27.780Z,8.50
2023-03-07T18:17:38.445Z,7.77
2023-03-07T18:23:43.372Z,7.87
2023-03-07T18:29:46.297Z,7.53
2023-03-07T18:35:47.864Z,8.20
2023-03-07T18:41:49.689Z,9.73
2023-03-07T18:47:51.145Z,10.53
2023-03-07T18:53:59.647Z,9.60
2023-03-07T19:00:01.398Z,12.40
2023-03-07T19:06:03.225Z,12.50
2023-03-07T19:12:05.104Z,12.98
2023-03-07T19:18:06.960Z,12.63
2023-03-07T19:24:11.360Z,12.17
2023-03-07T19:30:14.976Z,13.63
2023-03-07T19:36:21.258Z,13.10
2023-03-07T19:42:22.913Z,14.70
2023-03-07T19:48:25.442Z,12.63
2023-03-07T19:54:27.092Z,15.77
2023-03-07T20:00:28.583Z,15.18
2023-03-07T20:06:31.435Z,13.70
2023-03-07T20:12:33.641Z,13.80
2023-03-07T20:18:35.829Z,13.57
2023-03-07T20:24:37.704Z,12.03
2023-03-07T20:30:40.721Z,15.52
2023-03-07T20:36:42.984Z,11.70
2023-03-07T20:42:44.747Z,11.25
2023-03-07T20:48:46.447Z,10.47
2023-03-07T20:54:48.243Z,8.27
2023-03-07T21:00:52.558Z,5.25
2023-03-07T21:06:54.316Z,6.13
2023-03-07T21:12:56.163Z,4.72
2023-03-07T21:19:00.977Z,6.13
2023-03-07T21:25:05.254Z,4.30
2023-03-07T21:31:08.787Z,5.30
2023-03-07T21:37:10.292Z,4.00
2023-03-07T21:43:12.191Z,2.92
2023-03-07T21:49:13.617Z,8.63
2023-03-07T21:55:15.235Z,4.53
2023-03-07T22:01:19.020Z,4.78
2023-03-07T22:07:20.595Z,6.70
2023-03-07T22:13:22.052Z,5.18
2023-03-07T22:19:23.510Z,4.67
2023-03-07T22:25:24.970Z,6.70
2023-03-07T22:31:26.435Z,6.93
2023-03-07T22:37:27.956Z,6.83
2023-03-07T22:43:33.016Z,5.55
2023-03-07T22:49:35.150Z,5.10
2023-03-07T22:55:41.267Z,4.70
2023-03-07T23:01:42.756Z,4.47
2023-03-07T23:07:44.191Z,4.73
2023-03-07T23:13:45.683Z,4.80
2023-03-07T23:19:47.189Z,5.93
2023-03-07T23:25:48.605Z,6.72
2023-03-07T23:31:50.115Z,7.10
2023-03-07T23:37:51.559Z,5.60
2023-03-07T23:43:57.572Z,5.70
2023-03-07T23:49:59.004Z,5.73
2023-03-07T23:56:00.476Z,5.07
